createdAt,value
2016-10-03T00:00:11.888Z,1016.32
2016-10-03T00:01:11.899Z,1016.31
2016-10-03T00:02:11.921Z,1016.32
2016-10-03T00:03:11.940Z,1016.31
2016-10-03T00:04:11.962Z,1016.34
2016-10-03T00:05:11.980Z,1016.4
2016-10-03T00:06:12.005Z,1016.42
2016-10-03T00:07:12.067Z,1016.45
2016-10-03T00:08:12.039Z,1016.47
2016-10-03T00:09:12.060Z,1016.48
2016-10-03T00:10:12.088Z,1016.48
2016-10-03T00:11:12.100Z,1016.56
2016-10-03T00:12:12.169Z,1016.54
2016-10-03T00:13:12.138Z,1016.56
2016-10-03T00:14:12.160Z,1016.54
2016-10-03T00:15:12.178Z,1016.58
2016-10-03T00:16:12.196Z,1016.6
2016-10-03T00:17:12.215Z,1016.6
2016-10-03T00:18:12.235Z,1016.61
2016-10-03T00:19:12.258Z,1016.62
2016-10-03T00:20:12.280Z,1016.65
2016-10-03T00:21:12.289Z,1016.62
2016-10-03T00:22:12.363Z,1016.65
2016-10-03T00:23:12.335Z,1016.67
2016-10-03T00:24:12.350Z,1016.69
2016-10-03T00:25:12.372Z,1016.72
2016-10-03T00:26:12.388Z,1016.7
2016-10-03T00:27:12.506Z,1016.73
2016-10-03T00:28:12.431Z,1016.75
2016-10-03T00:29:12.451Z,1016.79
2016-10-03T00:30:12.469Z,1016.76
2016-10-03T00:31:12.487Z,1016.78
2016-10-03T00:35:12.567Z,1016.83
2016-10-03T00:36:12.580Z,1016.84
2016-10-03T00:37:12.599Z,1016.86
2016-10-03T00:38:12.619Z,1016.87
2016-10-03T00:39:12.638Z,1016.82
2016-10-03T00:40:12.670Z,1016.87
2016-10-03T00:41:12.680Z,1016.87
2016-10-03T00:42:12.699Z,1016.86
2016-10-03T00:43:12.711Z,1016.9
2016-10-03T00:44:12.728Z,1016.85
2016-10-03T00:45:12.807Z,1016.88
2016-10-03T00:46:12.770Z,1016.94
2016-10-03T00:47:12.793Z,1016.92
2016-10-03T00:48:12.803Z,1016.97
2016-10-03T00:49:12.833Z,1016.98
2016-10-03T00:50:12.842Z,1016.98
2016-10-03T00:51:12.865Z,1016.97
2016-10-03T00:52:12.886Z,1016.99
2016-10-03T00:53:12.910Z,1017
2016-10-03T00:54:12.925Z,1016.99
2016-10-03T00:55:12.940Z,1016.97
2016-10-03T00:56:12.962Z,1017.01
2016-10-03T00:57:12.975Z,1016.98
2016-10-03T00:58:12.998Z,1017.03
2016-10-03T00:59:13.016Z,1017.06
2016-10-03T01:00:13.036Z,1017.05
2016-10-03T01:01:13.056Z,1017.03
2016-10-03T01:02:13.073Z,1017.03
2016-10-03T01:03:13.087Z,1017.06
2016-10-03T01:04:13.109Z,1017.08
2016-10-03T01:05:13.180Z,1017.12
2016-10-03T01:06:13.146Z,1017.14
2016-10-03T01:07:13.167Z,1017.15
2016-10-03T01:08:13.180Z,1017.16
2016-10-03T01:09:13.204Z,1017.21
2016-10-03T01:10:13.273Z,1017.2
2016-10-03T01:11:13.239Z,1017.22
2016-10-03T01:12:13.260Z,1017.24
2016-10-03T01:13:13.280Z,1017.27
2016-10-03T01:14:13.295Z,1017.27
2016-10-03T01:15:13.319Z,1017.31
2016-10-03T01:16:13.335Z,1017.29
2016-10-03T01:17:13.361Z,1017.27
2016-10-03T01:18:13.368Z,1017.31
2016-10-03T01:19:13.394Z,1017.33
2016-10-03T01:20:13.462Z,1017.3
2016-10-03T01:21:13.429Z,1017.27
2016-10-03T01:22:13.449Z,1017.31
2016-10-03T01:23:13.467Z,1017.28
2016-10-03T01:24:13.482Z,1017.31
2016-10-03T01:25:13.504Z,1017.29
2016-10-03T01:26:13.522Z,1017.31
2016-10-03T01:27:13.545Z,1017.34
2016-10-03T01:28:13.570Z,1017.31
2016-10-03T01:29:13.581Z,1017.35
2016-10-03T01:30:13.653Z,1017.36
2016-10-03T01:31:13.612Z,1017.38
2016-10-03T01:32:13.635Z,1017.41
2016-10-03T01:33:13.654Z,1017.43
2016-10-03T01:34:13.679Z,1017.46
2016-10-03T01:35:13.695Z,1017.44
2016-10-03T01:36:13.708Z,1017.44
2016-10-03T01:37:13.727Z,1017.48
2016-10-03T01:38:13.751Z,1017.48
2016-10-03T01:39:13.778Z,1017.5
2016-10-03T01:40:13.785Z,1017.54
2016-10-03T01:41:13.817Z,1017.55
2016-10-03T01:42:13.821Z,1017.55
2016-10-03T01:43:13.890Z,1017.54
2016-10-03T01:44:13.859Z,1017.54
2016-10-03T01:45:13.930Z,1017.59
2016-10-03T01:46:13.893Z,1017.58
2016-10-03T01:47:13.924Z,1017.57
2016-10-03T01:48:13.934Z,1017.6
2016-10-03T01:49:13.954Z,1017.61
2016-10-03T01:50:13.973Z,1017.68
2016-10-03T01:51:13.989Z,1017.7
2016-10-03T01:52:14.021Z,1017.71
2016-10-03T01:53:14.027Z,1017.72
2016-10-03T01:54:14.113Z,1017.75
2016-10-03T01:55:14.068Z,1017.77
2016-10-03T01:56:14.084Z,1017.79
2016-10-03T01:57:14.099Z,1017.78
2016-10-03T01:58:14.121Z,1017.82
2016-10-03T01:59:14.140Z,1017.83
2016-10-03T02:00:14.156Z,1017.82
2016-10-03T02:01:14.179Z,1017.81
2016-10-03T02:02:14.198Z,1017.83
2016-10-03T02:03:14.211Z,1017.86
2016-10-03T02:04:14.229Z,1017.92
2016-10-03T02:05:14.263Z,1017.9
2016-10-03T02:06:14.270Z,1017.94
2016-10-03T02:07:14.377Z,1017.94
2016-10-03T02:08:14.308Z,1017.95
2016-10-03T02:09:14.326Z,1017.9
2016-10-03T02:10:14.355Z,1017.92
2016-10-03T02:11:14.362Z,1017.91
2016-10-03T02:12:14.390Z,1017.95
2016-10-03T02:13:14.404Z,1017.94
2016-10-03T02:14:14.418Z,1017.92
2016-10-03T02:15:14.443Z,1017.98
2016-10-03T02:16:14.459Z,1017.98
2016-10-03T02:17:14.474Z,1017.96
2016-10-03T02:18:14.497Z,1017.98
2016-10-03T02:19:14.517Z,1017.98
2016-10-03T02:20:14.628Z,1017.98
2016-10-03T02:21:14.547Z,1017.99
2016-10-03T02:22:14.565Z,1017.97
2016-10-03T02:23:14.589Z,1018.02
2016-10-03T02:24:14.608Z,1018.01
2016-10-03T02:25:14.624Z,1018.01
2016-10-03T02:26:14.648Z,1018
2016-10-03T02:27:14.668Z,1018.02
2016-10-03T02:28:14.684Z,1018.04
2016-10-03T02:29:14.697Z,1018.08
2016-10-03T02:30:14.717Z,1018.1
2016-10-03T02:31:14.732Z,1018.08
2016-10-03T02:32:14.753Z,1018.09
2016-10-03T02:33:14.780Z,1018.1
2016-10-03T02:34:14.801Z,1018.14
2016-10-03T02:35:14.811Z,1018.16
2016-10-03T02:36:14.833Z,1018.21
2016-10-03T02:37:14.857Z,1018.17
2016-10-03T02:38:14.869Z,1018.21
2016-10-03T02:39:14.890Z,1018.21
2016-10-03T02:40:14.906Z,1018.25
2016-10-03T02:41:14.929Z,1018.29
2016-10-03T02:42:14.946Z,1018.27
2016-10-03T02:43:14.972Z,1018.32
2016-10-03T02:44:14.984Z,1018.35
2016-10-03T02:45:15.002Z,1018.33
2016-10-03T02:46:15.021Z,1018.35
2016-10-03T02:47:15.045Z,1018.38
2016-10-03T02:48:15.066Z,1018.36
2016-10-03T02:49:15.077Z,1018.35
2016-10-03T02:50:15.095Z,1018.41
2016-10-03T02:51:15.113Z,1018.41
2016-10-03T02:52:15.135Z,1018.43
2016-10-03T02:53:15.157Z,1018.49
2016-10-03T02:54:15.178Z,1018.52
2016-10-03T02:55:15.201Z,1018.52
2016-10-03T02:56:15.218Z,1018.53
2016-10-03T02:57:15.232Z,1018.56
2016-10-03T02:58:15.255Z,1018.58
2016-10-03T02:59:15.265Z,1018.66
2016-10-03T03:00:15.285Z,1018.67
2016-10-03T03:01:15.600Z,1018.64
2016-10-03T03:02:15.327Z,1018.64
2016-10-03T03:03:15.354Z,1018.69
2016-10-03T03:04:15.369Z,1018.74
2016-10-03T03:05:15.387Z,1018.78
2016-10-03T03:06:15.402Z,1018.8
2016-10-03T03:07:15.425Z,1018.76
2016-10-03T03:08:15.444Z,1018.84
2016-10-03T03:09:15.464Z,1018.82
2016-10-03T03:10:15.485Z,1018.88
2016-10-03T03:11:15.499Z,1018.89
2016-10-03T03:12:15.523Z,1018.9
2016-10-03T03:13:15.535Z,1018.9
2016-10-03T03:14:15.564Z,1018.88
2016-10-03T03:15:15.586Z,1018.91
2016-10-03T03:16:15.597Z,1018.9
2016-10-03T03:17:15.824Z,1018.93
2016-10-03T03:18:15.633Z,1018.95
2016-10-03T03:19:15.653Z,1019.04
2016-10-03T03:20:15.674Z,1019.04
2016-10-03T03:21:15.694Z,1019.06
2016-10-03T03:22:15.715Z,1019.07
2016-10-03T03:23:15.731Z,1019.1
2016-10-03T03:24:15.754Z,1019.1
2016-10-03T03:25:15.826Z,1019.11
2016-10-03T03:26:15.789Z,1019.15
2016-10-03T03:27:15.809Z,1019.15
2016-10-03T03:28:15.829Z,1019.16
2016-10-03T03:29:15.848Z,1019.18
2016-10-03T03:30:15.875Z,1019.2
2016-10-03T03:31:15.887Z,1019.2
2016-10-03T03:32:15.905Z,1019.24
2016-10-03T03:33:15.924Z,1019.23
2016-10-03T03:34:15.941Z,1019.28
2016-10-03T03:35:15.968Z,1019.29
2016-10-03T03:36:16.072Z,1019.27
2016-10-03T03:37:16.002Z,1019.34
2016-10-03T03:38:16.123Z,1019.34
2016-10-03T03:39:16.036Z,1019.36
2016-10-03T03:40:16.110Z,1019.35
2016-10-03T03:41:16.084Z,1019.38
2016-10-03T03:42:16.107Z,1019.42
2016-10-03T03:43:16.125Z,1019.44
2016-10-03T03:44:16.144Z,1019.45
2016-10-03T03:45:16.158Z,1019.49
2016-10-03T03:46:16.175Z,1019.47
2016-10-03T03:47:16.200Z,1019.52
2016-10-03T03:48:16.214Z,1019.54
2016-10-03T03:49:16.321Z,1019.56
2016-10-03T03:50:16.257Z,1019.58
2016-10-03T03:51:16.274Z,1019.63
2016-10-03T03:52:16.291Z,1019.68
2016-10-03T03:53:16.310Z,1019.71
2016-10-03T03:54:16.329Z,1019.75
2016-10-03T03:55:16.350Z,1019.78
2016-10-03T03:56:16.378Z,1019.77
2016-10-03T03:57:16.390Z,1019.79
2016-10-03T03:58:16.407Z,1019.82
2016-10-03T03:59:16.434Z,1019.83
2016-10-03T04:00:16.528Z,1019.85
2016-10-03T04:01:16.469Z,1019.84
2016-10-03T04:02:16.486Z,1019.84
2016-10-03T04:03:16.516Z,1019.87
2016-10-03T04:04:16.575Z,1019.88
2016-10-03T04:05:16.540Z,1019.88
2016-10-03T04:06:16.571Z,1019.92
2016-10-03T04:07:16.584Z,1019.9
2016-10-03T04:08:16.600Z,1019.94
2016-10-03T04:09:16.618Z,1019.92
2016-10-03T04:10:16.644Z,1019.93
2016-10-03T04:11:16.661Z,1019.92
2016-10-03T04:12:16.673Z,1019.95
2016-10-03T04:13:16.695Z,1019.96
2016-10-03T04:14:16.716Z,1019.95
2016-10-03T04:15:16.734Z,1019.97
2016-10-03T04:16:16.753Z,1020.02
2016-10-03T04:17:16.777Z,1020
2016-10-03T04:18:16.793Z,1020.01
2016-10-03T04:19:16.814Z,1020.05
2016-10-03T04:20:16.829Z,1020.07
2016-10-03T04:21:16.858Z,1020.12
2016-10-03T04:22:16.872Z,1020.16
2016-10-03T04:23:16.894Z,1020.19
2016-10-03T04:24:16.907Z,1020.18
2016-10-03T04:25:16.924Z,1020.24
2016-10-03T04:26:16.942Z,1020.23
2016-10-03T04:27:16.964Z,1020.24
2016-10-03T04:28:16.982Z,1020.26
2016-10-03T04:29:17.006Z,1020.34
2016-10-03T04:30:17.023Z,1020.4
2016-10-03T04:31:17.043Z,1020.39
2016-10-03T04:32:17.062Z,1020.39
2016-10-03T04:33:17.078Z,1020.43
2016-10-03T04:34:17.108Z,1020.43
2016-10-03T04:35:17.115Z,1020.45
2016-10-03T04:36:17.135Z,1020.47
2016-10-03T04:37:17.155Z,1020.45
2016-10-03T04:38:17.176Z,1020.49
2016-10-03T04:39:17.197Z,1020.47
2016-10-03T04:40:17.220Z,1020.54
2016-10-03T04:41:17.236Z,1020.58
2016-10-03T04:42:17.252Z,1020.58
2016-10-03T04:43:17.279Z,1020.6
2016-10-03T04:44:17.296Z,1020.62
2016-10-03T04:45:17.318Z,1020.63
2016-10-03T04:46:17.327Z,1020.62
2016-10-03T04:47:17.349Z,1020.62
2016-10-03T04:48:17.368Z,1020.6
2016-10-03T04:49:17.383Z,1020.62
2016-10-03T04:50:17.407Z,1020.63
2016-10-03T04:51:17.433Z,1020.64
2016-10-03T04:52:17.450Z,1020.65
2016-10-03T04:53:17.468Z,1020.69
2016-10-03T04:54:17.479Z,1020.71
2016-10-03T04:55:17.506Z,1020.69
2016-10-03T04:56:17.521Z,1020.68
2016-10-03T04:57:17.537Z,1020.66
2016-10-03T04:58:17.561Z,1020.68
2016-10-03T04:59:17.586Z,1020.7
2016-10-03T05:00:17.600Z,1020.71
2016-10-03T05:01:17.619Z,1020.73
2016-10-03T05:02:17.641Z,1020.75
2016-10-03T05:03:17.656Z,1020.76
2016-10-03T05:04:17.676Z,1020.8
2016-10-03T05:05:17.845Z,1020.82
2016-10-03T05:06:17.717Z,1020.86
2016-10-03T05:07:17.728Z,1020.91
2016-10-03T05:08:17.750Z,1020.89
2016-10-03T05:09:17.769Z,1020.91
2016-10-03T05:10:17.787Z,1020.94
2016-10-03T05:11:17.807Z,1020.94
2016-10-03T05:12:17.830Z,1020.94
2016-10-03T05:13:17.847Z,1021.01
2016-10-03T05:14:17.870Z,1021
2016-10-03T05:15:17.940Z,1021.06
2016-10-03T05:16:17.905Z,1021.05
2016-10-03T05:17:17.926Z,1021.06
2016-10-03T05:18:17.953Z,1021.09
2016-10-03T05:19:17.961Z,1021.13
2016-10-03T05:20:17.981Z,1021.15
2016-10-03T05:21:17.998Z,1021.18
2016-10-03T05:22:18.020Z,1021.19
2016-10-03T05:23:18.039Z,1021.21
2016-10-03T05:24:18.055Z,1021.19
2016-10-03T05:25:18.080Z,1021.22
2016-10-03T05:26:18.102Z,1021.21
2016-10-03T05:27:18.125Z,1021.25
2016-10-03T05:28:18.135Z,1021.22
2016-10-03T05:29:18.154Z,1021.28
2016-10-03T05:30:18.469Z,1021.25
2016-10-03T05:31:18.251Z,1021.23
2016-10-03T05:32:18.221Z,1021.2
2016-10-03T05:33:18.275Z,1021.24
2016-10-03T05:34:18.246Z,1021.21
2016-10-03T05:35:18.328Z,1021.21
2016-10-03T05:36:18.284Z,1021.19
2016-10-03T05:37:18.303Z,1021.15
2016-10-03T05:38:18.327Z,1021.21
2016-10-03T05:39:18.343Z,1021.21
2016-10-03T05:40:18.364Z,1021.2
2016-10-03T05:41:18.383Z,1021.25
2016-10-03T05:42:18.538Z,1021.27
2016-10-03T05:43:18.417Z,1021.33
2016-10-03T05:44:18.524Z,1021.36
2016-10-03T05:45:18.465Z,1021.39
2016-10-03T05:46:18.488Z,1021.41
2016-10-03T05:47:18.504Z,1021.45
2016-10-03T05:48:18.511Z,1021.48
2016-10-03T05:49:18.543Z,1021.51
2016-10-03T05:50:18.551Z,1021.53
2016-10-03T05:51:18.575Z,1021.59
2016-10-03T05:52:18.598Z,1021.58
2016-10-03T05:53:18.613Z,1021.57
2016-10-03T05:54:18.631Z,1021.59
2016-10-03T05:55:18.645Z,1021.52
2016-10-03T05:56:18.673Z,1021.57
2016-10-03T05:57:18.704Z,1021.58
2016-10-03T05:58:18.713Z,1021.62
2016-10-03T05:59:18.724Z,1021.63
2016-10-03T06:00:18.749Z,1021.67
2016-10-03T06:01:18.768Z,1021.67
2016-10-03T06:02:18.782Z,1021.73
2016-10-03T06:03:18.805Z,1021.74
2016-10-03T06:04:18.816Z,1021.76
2016-10-03T06:05:18.843Z,1021.75
2016-10-03T06:06:18.865Z,1021.81
2016-10-03T06:07:18.876Z,1021.79
2016-10-03T06:08:18.905Z,1021.8
2016-10-03T06:09:18.917Z,1021.87
2016-10-03T06:10:18.932Z,1021.87
2016-10-03T06:11:18.957Z,1021.89
2016-10-03T06:12:18.971Z,1021.93
2016-10-03T06:13:18.988Z,1021.92
2016-10-03T06:14:19.007Z,1021.94
2016-10-03T06:15:19.034Z,1021.95
2016-10-03T06:16:19.050Z,1021.92
2016-10-03T06:17:19.070Z,1021.92
2016-10-03T06:18:19.091Z,1021.95
2016-10-03T06:19:19.103Z,1021.96
2016-10-03T06:20:19.125Z,1021.99
2016-10-03T06:21:19.145Z,1021.99
2016-10-03T06:22:19.164Z,1021.99
2016-10-03T06:23:19.181Z,1021.96
2016-10-03T06:24:19.207Z,1021.98
2016-10-03T06:25:19.223Z,1022
2016-10-03T06:26:19.237Z,1022.05
2016-10-03T06:27:19.265Z,1022.06
2016-10-03T06:28:19.284Z,1022.13
2016-10-03T06:29:19.306Z,1022.13
2016-10-03T06:30:19.319Z,1022.14
2016-10-03T06:31:19.334Z,1022.1
2016-10-03T06:32:19.364Z,1022.1
2016-10-03T06:33:19.374Z,1022.09
2016-10-03T06:34:19.393Z,1022.06
2016-10-03T06:35:19.412Z,1022.12
2016-10-03T06:36:19.439Z,1022.11
2016-10-03T06:37:19.454Z,1022.11
2016-10-03T06:38:19.475Z,1022.14
2016-10-03T06:39:19.490Z,1022.17
2016-10-03T06:40:19.512Z,1022.17
2016-10-03T06:41:19.536Z,1022.19
2016-10-03T06:42:19.699Z,1022.2
2016-10-03T06:43:19.572Z,1022.19
2016-10-03T06:44:19.592Z,1022.22
2016-10-03T06:45:19.633Z,1022.16
2016-10-03T06:46:19.629Z,1022.21
2016-10-03T06:47:19.643Z,1022.2
2016-10-03T06:48:19.668Z,1022.24
2016-10-03T06:49:19.687Z,1022.24
2016-10-03T06:50:19.719Z,1022.25
2016-10-03T06:51:19.733Z,1022.31
2016-10-03T06:52:19.755Z,1022.31
2016-10-03T06:53:19.763Z,1022.36
2016-10-03T06:54:19.806Z,1022.38
2016-10-03T06:55:19.805Z,1022.43
2016-10-03T06:56:19.821Z,1022.47
2016-10-03T06:57:19.839Z,1022.47
2016-10-03T06:58:19.866Z,1022.49
2016-10-03T06:59:19.888Z,1022.5
2016-10-03T07:00:19.911Z,1022.5
2016-10-03T07:01:19.925Z,1022.47
2016-10-03T07:02:19.949Z,1022.48
2016-10-03T07:03:19.968Z,1022.47
2016-10-03T07:04:19.988Z,1022.44
2016-10-03T07:05:20.050Z,1022.43
2016-10-03T07:06:20.022Z,1022.42
2016-10-03T07:07:20.036Z,1022.36
2016-10-03T07:08:20.067Z,1022.37
2016-10-03T07:09:20.085Z,1022.38
2016-10-03T07:10:20.110Z,1022.41
2016-10-03T07:11:20.126Z,1022.46
2016-10-03T07:12:20.147Z,1022.5
2016-10-03T07:13:20.171Z,1022.48
2016-10-03T07:14:20.189Z,1022.51
2016-10-03T07:15:20.306Z,1022.55
2016-10-03T07:16:20.226Z,1022.61
2016-10-03T07:17:20.257Z,1022.63
2016-10-03T07:18:20.271Z,1022.59
2016-10-03T07:19:20.294Z,1022.65
2016-10-03T07:20:20.309Z,1022.66
2016-10-03T07:21:20.333Z,1022.63
2016-10-03T07:22:20.354Z,1022.58
2016-10-03T07:23:20.374Z,1022.59
2016-10-03T07:24:20.397Z,1022.57
2016-10-03T07:25:20.419Z,1022.6
2016-10-03T07:26:20.447Z,1022.66
2016-10-03T07:27:20.466Z,1022.65
2016-10-03T07:28:20.485Z,1022.71
2016-10-03T07:29:20.512Z,1022.73
2016-10-03T07:30:20.523Z,1022.7
2016-10-03T07:31:20.550Z,1022.75
2016-10-03T07:32:20.563Z,1022.8
2016-10-03T07:33:20.596Z,1022.78
2016-10-03T07:34:20.618Z,1022.8
2016-10-03T07:35:20.641Z,1022.82
2016-10-03T07:36:20.655Z,1022.82
2016-10-03T07:37:20.676Z,1022.89
2016-10-03T07:38:20.696Z,1022.89
2016-10-03T07:39:20.723Z,1022.89
2016-10-03T07:40:20.742Z,1022.91
2016-10-03T07:41:20.759Z,1022.91
2016-10-03T07:42:20.791Z,1022.89
2016-10-03T07:43:20.800Z,1022.9
2016-10-03T07:44:20.824Z,1022.92
2016-10-03T07:45:20.853Z,1022.91
2016-10-03T07:46:20.870Z,1022.96
2016-10-03T07:47:20.888Z,1022.97
2016-10-03T07:48:20.915Z,1022.97
2016-10-03T07:49:20.929Z,1022.98
2016-10-03T07:50:20.951Z,1023.01
2016-10-03T07:51:20.976Z,1023.04
2016-10-03T07:52:21.016Z,1023.04
2016-10-03T07:53:21.016Z,1023.02
2016-10-03T07:54:21.048Z,1023.04
2016-10-03T07:55:21.113Z,1023.04
2016-10-03T07:56:21.076Z,1023.06
2016-10-03T07:57:21.097Z,1023.1
2016-10-03T07:58:21.122Z,1023.1
2016-10-03T07:59:21.141Z,1023.14
2016-10-03T08:00:21.170Z,1023.18
2016-10-03T08:01:21.190Z,1023.25
2016-10-03T08:02:21.203Z,1023.31
2016-10-03T08:03:21.227Z,1023.31
2016-10-03T08:04:21.261Z,1023.35
2016-10-03T08:05:21.277Z,1023.34
2016-10-03T08:06:21.317Z,1023.36
2016-10-03T08:07:21.318Z,1023.41
2016-10-03T08:08:21.337Z,1023.35
2016-10-03T08:09:21.365Z,1023.41
2016-10-03T08:10:21.682Z,1023.39
2016-10-03T08:11:21.646Z,1023.34
2016-10-03T08:12:21.622Z,1023.35
2016-10-03T08:13:21.692Z,1023.36
2016-10-03T08:14:21.669Z,1023.4
2016-10-03T08:15:21.683Z,1023.39
2016-10-03T08:16:21.728Z,1023.39
2016-10-03T08:17:21.684Z,1023.44
2016-10-03T08:18:21.545Z,1023.39
2016-10-03T08:19:21.669Z,1023.4
2016-10-03T08:20:21.793Z,1023.41
2016-10-03T08:21:21.666Z,1023.44
2016-10-03T08:22:21.690Z,1023.37
2016-10-03T08:23:21.713Z,1023.41
2016-10-03T08:24:21.737Z,1023.42
2016-10-03T08:25:21.752Z,1023.4
2016-10-03T08:26:21.722Z,1023.43
2016-10-03T08:27:21.744Z,1023.44
2016-10-03T08:28:21.761Z,1023.42
2016-10-03T08:29:21.785Z,1023.48
2016-10-03T08:30:21.868Z,1023.49
2016-10-03T08:31:21.831Z,1023.52
2016-10-03T08:32:21.851Z,1023.48
2016-10-03T08:33:21.868Z,1023.47
2016-10-03T08:34:21.900Z,1023.4
2016-10-03T08:35:21.916Z,1023.46
2016-10-03T08:36:21.939Z,1023.44
2016-10-03T08:37:21.962Z,1023.44
2016-10-03T08:38:22.131Z,1023.45
2016-10-03T08:39:22.001Z,1023.48
2016-10-03T08:40:22.033Z,1023.49
2016-10-03T08:41:22.054Z,1023.49
2016-10-03T08:42:22.072Z,1023.5
2016-10-03T08:43:22.637Z,1023.49
2016-10-03T08:44:22.113Z,1023.48
2016-10-03T08:45:22.142Z,1023.48
2016-10-03T08:46:22.160Z,1023.48
2016-10-03T08:47:22.182Z,1023.57
2016-10-03T08:48:22.203Z,1023.58
2016-10-03T08:49:22.278Z,1023.54
2016-10-03T08:50:22.291Z,1023.6
2016-10-03T08:51:22.270Z,1023.59
2016-10-03T08:52:22.289Z,1023.66
2016-10-03T08:53:22.306Z,1023.7
2016-10-03T08:54:22.333Z,1023.7
2016-10-03T08:55:22.409Z,1023.74
2016-10-03T08:56:22.376Z,1023.75
2016-10-03T08:57:22.397Z,1023.75
2016-10-03T08:58:22.418Z,1023.79
2016-10-03T08:59:22.793Z,1023.81
2016-10-03T09:00:22.523Z,1023.85
2016-10-03T09:01:22.491Z,1023.83
2016-10-03T09:02:22.564Z,1023.9
2016-10-03T09:03:22.523Z,1023.93
2016-10-03T09:04:22.601Z,1023.94
2016-10-03T09:05:22.617Z,1023.98
2016-10-03T09:06:22.590Z,1023.96
2016-10-03T09:07:22.622Z,1023.97
2016-10-03T09:08:22.645Z,1023.96
2016-10-03T09:09:22.660Z,1023.91
2016-10-03T09:10:22.685Z,1023.9
2016-10-03T09:11:22.712Z,1023.88
2016-10-03T09:12:22.732Z,1023.93
2016-10-03T09:13:22.954Z,1023.95
2016-10-03T09:14:22.926Z,1023.93
2016-10-03T09:15:22.906Z,1023.91
2016-10-03T09:16:22.826Z,1023.99
2016-10-03T09:17:22.850Z,1023.98
2016-10-03T09:18:22.873Z,1023.95
2016-10-03T09:19:22.954Z,1023.97
2016-10-03T09:20:22.919Z,1024.02
2016-10-03T09:21:22.946Z,1024.03
2016-10-03T09:22:22.961Z,1024
2016-10-03T09:23:22.984Z,1024.06
2016-10-03T09:24:23.016Z,1024.05
2016-10-03T09:25:23.035Z,1024.1
2016-10-03T09:26:23.054Z,1024.11
2016-10-03T09:27:23.087Z,1024.14
2016-10-03T09:28:23.113Z,1024.16
2016-10-03T09:29:23.127Z,1024.19
2016-10-03T09:30:23.198Z,1024.17
2016-10-03T09:31:23.177Z,1024.15
2016-10-03T09:32:23.200Z,1024.14
2016-10-03T09:33:23.223Z,1024.15
2016-10-03T09:34:23.239Z,1024.17
2016-10-03T09:35:23.259Z,1024.17
2016-10-03T09:36:23.288Z,1024.18
2016-10-03T09:37:23.309Z,1024.24
2016-10-03T09:38:23.338Z,1024.23
2016-10-03T09:39:23.360Z,1024.27
2016-10-03T09:40:23.383Z,1024.26
2016-10-03T09:41:23.398Z,1024.27
2016-10-03T09:42:23.434Z,1024.24
2016-10-03T09:43:23.449Z,1024.25
2016-10-03T09:44:23.469Z,1024.2
2016-10-03T09:45:23.492Z,1024.22
2016-10-03T09:46:23.520Z,1024.2
2016-10-03T09:47:23.536Z,1024.22
2016-10-03T09:48:23.561Z,1024.21
2016-10-03T09:49:23.596Z,1024.18
2016-10-03T09:50:23.614Z,1024.19
2016-10-03T09:51:23.631Z,1024.19
2016-10-03T09:52:23.659Z,1024.17
2016-10-03T09:53:23.677Z,1024.14
2016-10-03T09:54:23.699Z,1024.19
2016-10-03T09:55:23.717Z,1024.15
2016-10-03T09:56:23.743Z,1024.21
2016-10-03T09:57:23.782Z,1024.16
2016-10-03T09:58:23.796Z,1024.18
2016-10-03T09:59:23.826Z,1024.2
2016-10-03T10:00:23.840Z,1024.21
2016-10-03T10:01:23.863Z,1024.21
2016-10-03T10:02:23.884Z,1024.25
2016-10-03T10:03:23.914Z,1024.23
2016-10-03T10:04:23.937Z,1024.19
2016-10-03T10:05:23.955Z,1024.23
2016-10-03T10:06:23.986Z,1024.26
2016-10-03T10:07:24.001Z,1024.22
2016-10-03T10:08:24.023Z,1024.24
2016-10-03T10:09:24.052Z,1024.2
2016-10-03T10:10:24.175Z,1024.21
2016-10-03T10:11:24.098Z,1024.27
2016-10-03T10:12:24.126Z,1024.29
2016-10-03T10:13:24.141Z,1024.34
2016-10-03T10:14:24.167Z,1024.37
2016-10-03T10:15:24.194Z,1024.36
2016-10-03T10:16:24.218Z,1024.37
2016-10-03T10:17:24.256Z,1024.37
2016-10-03T10:18:24.269Z,1024.43
2016-10-03T10:19:24.291Z,1024.42
2016-10-03T10:20:24.314Z,1024.47
2016-10-03T10:21:24.340Z,1024.52
2016-10-03T10:22:24.361Z,1024.58
2016-10-03T10:23:24.458Z,1024.57
2016-10-03T10:24:24.414Z,1024.65
2016-10-03T10:25:24.540Z,1024.63
2016-10-03T10:26:24.458Z,1024.64
2016-10-03T10:27:24.481Z,1024.67
2016-10-03T10:28:24.516Z,1024.62
2016-10-03T10:29:24.540Z,1024.7
2016-10-03T10:30:24.555Z,1024.69
2016-10-03T10:31:24.583Z,1024.69
2016-10-03T10:32:25.002Z,1024.69
2016-10-03T10:33:24.633Z,1024.7
2016-10-03T10:34:24.810Z,1024.74
2016-10-03T10:35:24.673Z,1024.72
2016-10-03T10:36:24.704Z,1024.69
2016-10-03T10:37:24.733Z,1024.63
2016-10-03T10:38:24.758Z,1024.63
2016-10-03T10:39:24.776Z,1024.64
2016-10-03T10:40:24.958Z,1024.67
2016-10-03T10:41:24.822Z,1024.68
2016-10-03T10:42:24.842Z,1024.7
2016-10-03T10:43:24.873Z,1024.7
2016-10-03T10:44:24.891Z,1024.7
2016-10-03T10:45:24.922Z,1024.68
2016-10-03T10:46:24.955Z,1024.67
2016-10-03T10:47:24.963Z,1024.71
2016-10-03T10:48:24.993Z,1024.75
2016-10-03T10:49:25.016Z,1024.8
2016-10-03T10:50:25.350Z,1024.79
2016-10-03T10:51:25.070Z,1024.78
2016-10-03T10:52:25.083Z,1024.79
2016-10-03T10:53:25.112Z,1024.79
2016-10-03T10:54:25.133Z,1024.76
2016-10-03T10:55:25.159Z,1024.74
2016-10-03T10:56:25.187Z,1024.76
2016-10-03T10:57:25.206Z,1024.83
2016-10-03T10:58:25.229Z,1024.79
2016-10-03T10:59:25.248Z,1024.84
2016-10-03T11:00:25.281Z,1024.84
2016-10-03T11:01:25.300Z,1024.77
2016-10-03T11:02:25.331Z,1024.78
2016-10-03T11:03:25.356Z,1024.75
2016-10-03T11:04:25.377Z,1024.82
2016-10-03T11:05:25.405Z,1024.86
2016-10-03T11:06:25.422Z,1024.82
2016-10-03T11:07:25.443Z,1024.89
2016-10-03T11:08:25.471Z,1024.87
2016-10-03T11:09:25.501Z,1024.85
2016-10-03T11:10:25.524Z,1024.87
2016-10-03T11:11:25.547Z,1024.82
2016-10-03T11:12:25.571Z,1024.8
2016-10-03T11:13:25.588Z,1024.86
2016-10-03T11:14:25.619Z,1024.82
2016-10-03T11:15:25.639Z,1024.83
2016-10-03T11:16:25.664Z,1024.76
2016-10-03T11:17:25.691Z,1024.84
2016-10-03T11:18:25.707Z,1024.83
2016-10-03T11:19:25.737Z,1024.81
2016-10-03T11:20:25.762Z,1024.83
2016-10-03T11:21:25.783Z,1024.89
2016-10-03T11:22:25.808Z,1024.91
2016-10-03T11:23:25.827Z,1024.91
2016-10-03T11:24:25.858Z,1024.92
2016-10-03T11:25:25.884Z,1024.94
2016-10-03T11:26:25.902Z,1024.96
2016-10-03T11:27:25.921Z,1024.94
2016-10-03T11:28:25.953Z,1024.93
2016-10-03T11:29:25.979Z,1024.9
2016-10-03T11:30:26.022Z,1024.91
2016-10-03T11:31:26.034Z,1024.9
2016-10-03T11:32:26.058Z,1024.91
2016-10-03T11:33:26.072Z,1024.96
2016-10-03T11:34:26.111Z,1024.93
2016-10-03T11:35:26.119Z,1024.92
2016-10-03T11:36:26.145Z,1024.97
2016-10-03T11:37:26.375Z,1025.01
2016-10-03T11:38:26.199Z,1024.94
2016-10-03T11:39:26.217Z,1024.97
2016-10-03T11:40:26.393Z,1024.93
2016-10-03T11:41:26.271Z,1024.91
2016-10-03T11:42:26.304Z,1024.95
2016-10-03T11:43:26.313Z,1024.96
2016-10-03T11:44:26.336Z,1024.94
2016-10-03T11:45:26.368Z,1024.93
2016-10-03T11:46:26.393Z,1024.91
2016-10-03T11:47:26.412Z,1024.92
2016-10-03T11:48:26.435Z,1024.92
2016-10-03T11:49:26.465Z,1024.92
2016-10-03T11:50:26.538Z,1024.92
2016-10-03T11:51:26.628Z,1024.92
2016-10-03T11:52:26.534Z,1024.99
2016-10-03T11:53:26.562Z,1024.96
2016-10-03T11:54:26.781Z,1025.01
2016-10-03T11:55:26.600Z,1025.03
2016-10-03T11:56:26.634Z,1025.01
2016-10-03T11:57:26.656Z,1025.07
2016-10-03T11:58:26.686Z,1025.08
2016-10-03T11:59:26.704Z,1025.1
2016-10-03T12:00:26.723Z,1025.09
2016-10-03T12:01:26.753Z,1025.1
2016-10-03T12:03:26.799Z,1025.09
2016-10-03T12:04:26.924Z,1025.13
2016-10-03T12:05:26.857Z,1025.14
2016-10-03T12:06:26.873Z,1025.15
2016-10-03T12:07:26.902Z,1025.14
2016-10-03T12:08:26.921Z,1025.17
2016-10-03T12:09:26.944Z,1025.15
2016-10-03T12:10:26.974Z,1025.18
2016-10-03T12:11:26.993Z,1025.19
2016-10-03T12:12:27.013Z,1025.2